Tiempo atmosférico en la estación meteorológica de Chandrexa De Queixa, Ourense (990 m.)



Fecha
DESCASC
Temp. máxima en grados centígrados (hora)
DESCASC
Temp. mínima en grados centígrados (hora)
DESCASC
Temp. media en grados centígrados
DESCASC
Racha de viento máxima en m/sg (hora)
DESCASC
Velocidad máxima media en intervalos de 10 minutos(hora)
DESCASC
Precipitaciones diarias en mm
DESCASC
Precipitaciones de 00:00 a 06:00 en mm
DESCASC
Precipitaciones de 06:00 a 12:00 en mm
DESCASC
Precipitaciones de 12:00 a 18:00 en mm
DESCASC
Precipitaciones de 18:00 a 24:00 en mm
DESCASC
18-02-2018 10.9 (15:20) -2.7 (08:00) 4.1 6.94 (14:10) 2.78 (13:00) 0 0 0 0 0
17-02-2018 8.6 (16:10) -0.7 (23:59) 4 7.22 (04:00) 3.61 (04:00) 1.4 1.2 0.2 0 0
16-02-2018 12.1 (15:20) 6.1 (23:50) 9.1 9.44 (14:10) 6.39 (14:40) 1.2 0.4 0.6 0.2 0
15-02-2018 10 (12:10) 8.4 (00:00) 9.2 13.61 (00:50) 9.17 (11:20) 8.2 0 0 1.2 7
14-02-2018 9.6 (14:30) 5 (00:00) 7.3 19.44 (03:30) 10.83 (03:30) 0.4 0 0.2 0.2 0
13-02-2018 6.2 (16:10) -1.6 (-00:0) 2.3 17.78 (08:10) 10.28 (08:10) 31.2 0 7.6 20.4 3.2
12-02-2018 2.9 (15:10) -3.7 (-00:0) -0.4 3.89 (14:50) 2.22 (23:50) 0 0 0 0 0
11-02-2018 7.5 (13:50) -0.4 (00:00) 3.5 10 (12:10) 5.28 (12:00) 10.8 2.2 1.2 6.2 1.2
10-02-2018 3.5 (23:59) -1.3 (-00:0) 1.1 4.17 (01:10) 2.22 (16:00) 2.2 0 0 0 2.2
09-02-2018 3 (15:20) -0.9 (-00:0) 1.1 7.78 (16:20) 3.06 (18:20) 10 6.8 2 1.2 0
08-02-2018 4.4 (17:10) -6.7 (-00:0) -1.1 4.72 (15:00) 2.22 (16:50) 0 0 0 0 0
07-02-2018 1.2 (15:50) -4 (-00:0) -1.4 8.89 (15:40) 4.17 (16:10) 0 0 0 0 0
06-02-2018 0.5 (17:20) -5.9 (-00:0) -2.7 7.22 (16:30) 2.5 (14:00) 0 0 0 0 0
05-02-2018 0.3 (14:40) -4.2 (-00:0) -1.9 10.83 (16:30) 4.44 (16:30) 0.2 0 0 0.2 0
04-02-2018 1.4 (17:00) -2.1 (-00:0) -0.3 10 (00:30) 3.89 (00:20) 6 0 0 6 0
03-02-2018 4 (15:20) -1.9 (-00:0) 1.1 8.89 (19:30) 5 (19:40) 11.6 0 1.8 4.6 5.2
02-02-2018 1 (16:00) -1.9 (-00:0) -0.4 10.83 (16:30) 4.72 (16:40) 2.6 0 0 2.6 0
01-02-2018 4.3 (01:00) -1.1 (-00:0) 1.6 13.33 (17:30) 5.28 (15:40) 6.8 2 2.2 2.6 0
31-01-2018 13.8 (15:00) -1 (-00:0) 6.4 5.83 (15:20) 3.61 (15:20) 0 0 0 0 0
30-01-2018 13.5 (16:10) -1.6 (-00:0) 5.9 3.89 (18:50) 2.22 (12:50) 0 0 0 0 0
29-01-2018 12.7 (15:50) -1 (-00:0) 5.8 7.5 (00:30) 4.44 (00:30) 0 0 0 0 0
28-01-2018 11.6 (16:10) -1.3 (-00:0) 5.2 9.17 (23:30) 6.67 (23:30) 0 0 0 0 0
27-01-2018 4.7 (22:10) 0.7 (00:00) 2.7 6.39 (00:50) 2.5 (00:50) 0.2 0.2 0 0 0
26-01-2018 3 (15:20) 0 (00:00) 1.5 9.72 (19:50) 3.89 (11:40) 9.6 0.4 1.8 5.8 1.6
25-01-2018 6.5 (00:10) 0.3 (00:00) 3.4 17.5 (02:10) 11.67 (02:50) 17.8 2.6 6.8 8 0.4
24-01-2018 9.1 (14:50) -1.7 (-00:0) 3.7 15.56 (23:59) 8.06 (23:30) 0 0 0 0 0
23-01-2018 10.8 (16:00) 1.2 (00:00) 6 3.33 (14:50) 1.94 (00:20) 0 0 0 0 0
22-01-2018 10.4 (14:30) 4.8 (00:00) 7.6 5.28 (05:30) 3.33 (05:30) 0 0 0 0 0

Gráficas

Temp. máximas Temp. mínimas Temp. medias Precipitaciones Rachas de viento máximas Velocidades máximas media en intervalos de 10 minutos

Datos horarios

Fecha y hora oficial Temperatura (ºC) Velocidad del viento (km/h) Dirección del viento Racha (km/h) Dirección de racha Precipitación (mm) Presión (hPa) Tendencia (hPa) Humedad (%)
2018-02-20 23:00:00 2.3 0 Calma 3 Sur 0 -- -- 95
2018-02-20 22:00:00 3.3 0 Calma 4 Sur 0 -- -- 91
2018-02-20 21:00:00 4.6 2 Sur 6 Sudoeste 0 -- -- 87
2018-02-20 20:00:00 6.4 2 Oeste 6 Sudoeste 0 -- -- 81
2018-02-20 19:00:00 8.5 3 Norte 12 Noroeste 0 -- -- 73
2018-02-20 18:00:00 10.6 6 Norte 33 Noroeste 0 -- -- 65
2018-02-20 17:00:00 11.5 16 Norte 29 Nordeste 0 -- -- 55
2018-02-20 16:00:00 11.5 16 Nordeste 31 Nordeste 0 -- -- 55
2018-02-20 15:00:00 10.6 10 Norte 30 Norte 0 -- -- 58
2018-02-20 14:00:00 9.8 12 Norte 24 Norte 0 -- -- 65
2018-02-20 13:00:00 8.4 8 Norte 17 Norte 0 -- -- 74
2018-02-20 12:00:00 6.8 5 Nordeste 12 Nordeste 0 -- -- 80
2018-02-20 11:00:00 4.5 3 Sur 10 Sur 0 -- -- 92
2018-02-20 10:00:00 3.5 2 Sur 10 Sur 0 -- -- 97
2018-02-20 09:00:00 2.8 2 Sur 13 Sur 0 -- -- 96
2018-02-20 08:00:00 3.1 2 Sudeste 8 Sudeste 0 -- -- 95
2018-02-20 07:00:00 3.6 0 Calma 5 Sudeste 0 -- -- 98
2018-02-20 06:00:00 3.6 0 Calma 6 Norte 0 -- -- 99
2018-02-20 05:00:00 3.6 2 Norte 6 Este 0 -- -- 100
2018-02-20 04:00:00 3.7 0 Calma 9 Nordeste 0 -- -- 100
2018-02-20 03:00:00 4 0 Calma 10 Norte 0 -- -- 98
2018-02-20 02:00:00 4.5 5 Norte 9 Norte 0 -- -- 98
2018-02-20 01:00:00 4.6 2 Norte 9 Noroeste 0 -- -- 99
2018-02-20 00:00:00 4.8 3 Norte 14 Nordeste 0 -- -- 99
2018-02-19 23:00:00 4.8 3 Nordeste 13 Nordeste 0 -- -- 98
2018-02-19 22:00:00 5 3 Nordeste 10 Norte 0 -- -- 99
2018-02-19 21:00:00 5.1 5 Nordeste 15 Norte 0 -- -- 98
2018-02-19 20:00:00 5.6 4 Norte 11 Nordeste 0 -- -- 95
2018-02-19 19:00:00 5.9 4 Nordeste 15 Nordeste 0 -- -- 92
2018-02-19 18:00:00 6.6 7 Norte 17 Nordeste 0 -- -- 90
2018-02-19 17:00:00 7.3 7 Norte 18 Norte 0 -- -- 87
2018-02-19 16:00:00 8.1 5 Norte 15 Nordeste 0 -- -- 79
2018-02-19 15:00:00 8.2 5 Norte 17 Norte 0 -- -- 77
2018-02-19 14:00:00 7.2 7 Norte 15 Norte 0 -- -- 82
2018-02-19 13:00:00 6.4 6 Nordeste 14 Norte 0 -- -- 84
2018-02-19 12:00:00 5.8 3 Nordeste 10 Nordeste 0 -- -- 86
2018-02-19 11:00:00 4.4 2 Noroeste 4 Sur 0 -- -- 92
2018-02-19 10:00:00 3.2 0 Calma 5 Sudeste 0 -- -- 94
2018-02-19 09:00:00 2.7 0 Calma 7 Sur 0 -- -- 96
2018-02-19 08:00:00 3.1 3 Nordeste 8 Nordeste 0 -- -- 95
2018-02-19 07:00:00 3.6 0 Calma 6 Nordeste 0 -- -- 95
2018-02-19 06:00:00 3.7 0 Calma 4 Norte 0 -- -- 94
2018-02-19 05:00:00 3.4 2 Sudoeste 4 Sur 0 -- -- 96
2018-02-19 04:00:00 3.4 2 Sur 6 Sur 0 -- -- 96
2018-02-19 03:00:00 3.5 3 Sur 4 Sur 0 -- -- 95
2018-02-19 02:00:00 3.7 0 Calma 6 Sur 0 -- -- 95
2018-02-19 01:00:00 4 0 Calma 3 Sur 0 -- -- 93
2018-02-19 00:00:00 4.4 0 Calma 3 Sur 0 -- -- 91
2018-02-18 23:00:00 4.8 0 Calma 3 Sudeste 0 -- -- 91
2018-02-18 22:00:00 5.3 0 Calma 7 Noroeste 0 -- -- 89
2018-02-18 21:00:00 6.1 2 Sur 5 Sur 0 -- -- 86
2018-02-18 20:00:00 6.7 2 Este 7 Nordeste 0 -- -- 82
2018-02-18 19:00:00 7.4 4 Norte 12 Nordeste 0 -- -- 78
2018-02-18 18:00:00 8.2 7 Norte 17 Norte 0 -- -- 76
2018-02-18 17:00:00 9.8 4 Norte 17 Norte 0 -- -- 63
2018-02-18 16:00:00 10.5 6 Norte 21 Norte 0 -- -- 57
2018-02-18 15:00:00 10.6 4 Nordeste 25 Norte 0 -- -- 57
2018-02-18 14:00:00 10.2 8 Nordeste 20 Norte 0 -- -- 58
2018-02-18 13:00:00 9 10 Nordeste 22 Norte 0 -- -- 64
2018-02-18 12:00:00 7.1 6 Norte 13 Nordeste 0 -- -- 72
2018-02-18 11:00:00 3.3 2 Sudeste 4 Sur 0 -- -- 85
2018-02-18 10:00:00 -0.9 0 Calma 5 Sudoeste 0 -- -- 100
2018-02-18 09:00:00 -2.5 0 Calma 4 Sudoeste 0 -- -- 100
2018-02-18 08:00:00 -2.7 3 Sur 4 Sudoeste 0 -- -- 100
2018-02-18 07:00:00 -2.5 2 Sur 3 Sudoeste 0 -- -- 100
2018-02-18 06:00:00 -2.2 0 Calma 6 Sudoeste 0 -- -- 100
2018-02-18 05:00:00 -2.3 3 Sur 5 Sudoeste 0 -- -- 99
2018-02-18 04:00:00 -2 0 Calma 10 Sudoeste 0 -- -- 100
2018-02-18 03:00:00 -2 3 Sudoeste 5 Sur 0 -- -- 99
2018-02-18 02:00:00 -1.6 2 Sudoeste 4 Sudoeste 0 -- -- 99
2018-02-18 01:00:00 -1.2 3 Sudoeste 4 Sudoeste 0 -- -- 98
2018-02-18 00:00:00 -0.7 2 Sudoeste 5 Sudoeste 0 -- -- 97
2018-02-17 23:00:00 -0.1 3 Sur 5 Sudoeste 0 -- -- 94
2018-02-17 22:00:00 0.8 2 Sur 4 Sur 0 -- -- 92
2018-02-17 21:00:00 2 2 Sur 8 Sur 0 -- -- 88
2018-02-17 20:00:00 3.5 3 Sur 11 Norte 0 -- -- 82
2018-02-17 19:00:00 5.3 4 Norte 13 Norte 0 -- -- 72
2018-02-17 18:00:00 6.6 5 Norte 22 Norte 0 -- -- 71
2018-02-17 17:00:00 7.2 10 Norte 23 Norte 0 -- -- 77
2018-02-17 16:00:00 8.4 9 Norte 22 Nordeste 0 -- -- 64
2018-02-17 15:00:00 7.9 8 Norte 22 Norte 0 -- -- 68
2018-02-17 14:00:00 7.2 8 Nordeste 18 Norte 0 -- -- 74
2018-02-17 13:00:00 6.7 5 Norte 14 Nordeste 0 -- -- 81
2018-02-17 12:00:00 5.1 5 Norte 14 Nordeste 0 -- -- 85
2018-02-17 11:00:00 3.9 8 Norte 16 Norte 0.2 -- -- 92
2018-02-17 10:00:00 2.4 6 Nordeste 15 Nordeste 0 -- -- 100
2018-02-17 09:00:00 2.5 3 Nordeste 9 Este 0 -- -- 100
2018-02-17 08:00:00 3 3 Norte 8 Norte 0 -- -- 100
2018-02-17 07:00:00 3.3 0 Calma 7 Nordeste 0 -- -- 100
2018-02-17 06:00:00 3.7 5 Nordeste 12 Norte 0.2 -- -- 100
2018-02-17 05:00:00 4 5 Norte 18 Nordeste 0.2 -- -- 100
2018-02-17 04:00:00 4.7 13 Norte 26 Norte 0.2 -- -- 100
2018-02-17 03:00:00 5.2 7 Noroeste 14 Noroeste 0.4 -- -- 100
2018-02-17 02:00:00 5.2 2 Sur 3 Sur 0.2 -- -- 99
2018-02-17 01:00:00 5.4 2 Sudeste 10 Sur 0 -- -- 97
2018-02-17 00:00:00 6.1 3 Sur 8 Oeste 0 -- -- 92
2018-02-16 23:00:00 6.4 0 Calma 16 Sudoeste 0 -- -- 88
2018-02-16 22:00:00 6.7 10 Sur 21 Sudoeste 0 -- -- 88
2018-02-16 21:00:00 7.1 12 Sudoeste 34 Oeste 0 -- -- 92
2018-02-16 20:00:00 7.8 17 Sudoeste 27 Sudoeste 0 -- -- 93
2018-02-16 19:00:00 8 8 Sudoeste 20 Sudoeste 0 -- -- 97
2018-02-16 18:00:00 8.7 9 Sudoeste 26 Sudoeste 0.2 -- -- 97
2018-02-16 17:00:00 9.5 10 Sudoeste 19 Sudoeste 0 -- -- 95
2018-02-16 16:00:00 10.6 11 Sudoeste 31 Sur 0 -- -- 88
2018-02-16 15:00:00 11 17 Sur 34 Sur 0 -- -- 90
2018-02-16 14:00:00 10.5 15 Sur 29 Sur 0 -- -- 92
2018-02-16 13:00:00 9 15 Sur 34 Sur 0 -- -- 95
2018-02-16 12:00:00 8.9 19 Sur 33 Sur 0 -- -- 95
2018-02-16 11:00:00 8.9 14 Sur 26 Sur 0 -- -- 95
2018-02-16 10:00:00 8.1 13 Sur 22 Sur 0 -- -- 98
2018-02-16 09:00:00 7.6 9 Sur 21 Sur 0 -- -- 98
2018-02-16 08:00:00 7.6 8 Sur 18 Sur 0.6 -- -- 98
2018-02-16 07:00:00 7.6 6 Sur 22 Sur 0 -- -- 99
2018-02-16 06:00:00 7.8 13 Sur 29 Sur 0 -- -- 98
2018-02-16 05:00:00 7.8 11 Sur 30 Sur 0 -- -- 98
2018-02-16 04:00:00 7.6 12 Sur 24 Sur 0 -- -- 100
2018-02-16 03:00:00 7.9 13 Sur 22 Sur 0.4 -- -- 100
2018-02-16 02:00:00 8.2 6 Sudoeste 27 Sur 0 -- -- 100
2018-02-16 01:00:00 8.3 17 Sur 27 Sur 0 -- -- 100
2018-02-16 00:00:00 8.6 14 Sur 27 Sur 0 -- -- 100
2018-02-15 23:00:00 8.5 6 Sur 30 Sur 0 -- -- 100
2018-02-15 22:00:00 8.6 10 Sur 24 Sur 0.2 -- -- 100
2018-02-15 21:00:00 8.8 8 Sudoeste 14 Sudoeste 1.2 -- -- 100
2018-02-15 20:00:00 9 4 Sudoeste 14 Sudoeste 2.6 -- -- 100
2018-02-15 19:00:00 9.2 5 Oeste 19 Sur 3 -- -- 100
2018-02-15 18:00:00 9.6 14 Sur 35 Sur 1.2 -- -- 99
2018-02-15 17:00:00 9.7 22 Sur 39 Sur 0 -- -- 97
2018-02-15 16:00:00 9.6 17 Sur 29 Sur 0 -- -- 98
2018-02-15 15:00:00 9.8 17 Sur 37 Sur 0 -- -- 97
2018-02-15 14:00:00 9.8 21 Sur 37 Sur 0 -- -- 97
2018-02-15 13:00:00 9.7 23 Sur 44 Sur 0 -- -- 95
2018-02-15 12:00:00 9.9 25 Sur 46 Sudoeste 0 -- -- 94
2018-02-15 11:00:00 9.7 29 Sur 47 Sur 0 -- -- 95
2018-02-15 10:00:00 9.3 24 Sur 42 Sur 0 -- -- 94
2018-02-15 09:00:00 8.9 18 Sur 38 Sur 0 -- -- 95
2018-02-15 08:00:00 8.8 23 Sur 39 Sudoeste 0 -- -- 95
2018-02-15 07:00:00 8.8 15 Sur 37 Sudoeste 0 -- -- 95
2018-02-15 06:00:00 8.8 18 Sur 40 Sudoeste 0 -- -- 96
2018-02-15 05:00:00 9 26 Sur 46 Sudoeste 0 -- -- 92
2018-02-15 04:00:00 9 18 Sur 36 Sur 0 -- -- 94
2018-02-15 03:00:00 8.9 25 Sur 46 Sudoeste 0 -- -- 95
2018-02-15 02:00:00 8.9 23 Sur 46 Sudoeste 0 -- -- 95
2018-02-15 01:00:00 9.2 26 Sudoeste 49 Sudoeste 0 -- -- 93
2018-02-15 00:00:00 9 19 Sudoeste 39 Sudoeste 0 -- -- 95
2018-02-14 23:00:00 9 21 Sudoeste 43 Sur 0 -- -- 93
2018-02-14 22:00:00 9.1 21 Sudoeste 45 Sur 0 -- -- 93
2018-02-14 21:00:00 9.1 25 Sudoeste 51 Sur 0 -- -- 92
2018-02-14 20:00:00 8.9 32 Sudoeste 53 Sudoeste 0 -- -- 94
2018-02-14 19:00:00 8.9 30 Sudoeste 59 Sudoeste 0 -- -- 94
2018-02-14 18:00:00 8.9 28 Sudoeste 53 Sudoeste 0 -- -- 97
2018-02-14 17:00:00 9 26 Sudoeste 46 Sudoeste 0 -- -- 95
2018-02-14 16:00:00 9.2 24 Sudoeste 53 Sudoeste 0 -- -- 92
2018-02-14 15:00:00 9.5 20 Sudoeste 50 Sur 0.2 -- -- 92
2018-02-14 14:00:00 8.6 22 Sudoeste 48 Sudoeste 0 -- -- 99
2018-02-14 13:00:00 7.9 26 Sudoeste 50 Sudoeste 0 -- -- 99
2018-02-14 12:00:00 7.8 18 Sudoeste 53 Sudoeste 0.2 -- -- 99
2018-02-14 11:00:00 7.3 29 Sudoeste 49 Sudoeste 0 -- -- 99
2018-02-14 10:00:00 7.1 31 Sudoeste 61 Sudoeste 0 -- -- 98
2018-02-14 09:00:00 6.6 36 Sudoeste 57 Sudoeste 0 -- -- 97
2018-02-14 08:00:00 6.1 26 Sur 50 Sudoeste 0 -- -- 98
2018-02-14 07:00:00 5.8 21 Sur 49 Sur 0 -- -- 98
2018-02-14 06:00:00 5.4 17 Sudoeste 48 Sur 0 -- -- 96
2018-02-14 05:00:00 5.3 29 Sur 52 Sur 0 -- -- 95
2018-02-14 04:00:00 5.4 30 Sudoeste 70 Sudoeste 0 -- -- 94
2018-02-14 03:00:00 5.2 28 Sudoeste 53 Sudoeste 0 -- -- 94
2018-02-14 02:00:00 5.2 27 Sudoeste 51 Sudoeste 0 -- -- 95
2018-02-14 01:00:00 5.1 25 Sudoeste 47 Sudoeste 0 -- -- 99
2018-02-14 00:00:00 5.1 26 Sudoeste 53 Sudoeste 0 -- -- 98
2018-02-13 23:00:00 4.9 13 Sudoeste 54 Sudoeste 0.2 -- -- 100
2018-02-13 22:00:00 4.7 14 Sudoeste 39 Oeste 0.4 -- -- 100
2018-02-13 21:00:00 5.2 14 Sudoeste 39 Sudoeste 0.8 -- -- 100
2018-02-13 20:00:00 5.5 10 Oeste 49 Sudoeste 0.6 -- -- 100
2018-02-13 19:00:00 5.6 22 Sudoeste 53 Oeste 1.2 -- -- 100
2018-02-13 18:00:00 5.9 20 Sudoeste 49 Sudoeste 1.6 -- -- 100
2018-02-13 17:00:00 6.1 19 Oeste 57 Oeste 3 -- -- 100
2018-02-13 16:00:00 6.1 23 Sudoeste 48 Sudoeste 3.4 -- -- 100
2018-02-13 15:00:00 5.7 15 Oeste 44 Oeste 4.8 -- -- 100
2018-02-13 14:00:00 5.4 26 Sudoeste 47 Oeste 3.6 -- -- 100
2018-02-13 13:00:00 4.5 18 Sudoeste 45 Sudoeste 4 -- -- 100
2018-02-13 12:00:00 3 20 Sudoeste 44 Sudoeste 3.2 -- -- 100
2018-02-13 11:00:00 2.2 26 Sur 46 Sudoeste 3 -- -- 100
2018-02-13 10:00:00 1.9 27 Sudoeste 60 Sudoeste 1.2 -- -- 98
2018-02-13 09:00:00 1.5 29 Sur 64 Sur 0.2 -- -- 97
2018-02-13 08:00:00 1.1 35 Sur 57 Sur 0 -- -- 97
2018-02-13 07:00:00 0.9 26 Sur 59 Sudoeste 0 -- -- 95
2018-02-13 06:00:00 0.9 28 Sur 53 Sudoeste 0 -- -- 91
2018-02-13 05:00:00 0.2 23 Sudoeste 49 Sudoeste 0 -- -- 92
2018-02-13 04:00:00 -0.6 10 Sudoeste 38 Sudoeste 0 -- -- 89
2018-02-13 03:00:00 -1.4 12 Sur 30 Sur 0 -- -- 86
2018-02-13 02:00:00 -1.2 13 Sudoeste 33 Sudoeste 0 -- -- 81
2018-02-13 01:00:00 -1.1 13 Sur 26 Sur 0 -- -- 92
2018-02-13 00:00:00 -1.5 6 Sur 14 Sur 0 -- -- 94
2018-02-12 23:00:00 -1.8 3 Sur 9 Sur 0 -- -- 96
2018-02-12 22:00:00 -1.4 4 Sur 10 Sur 0 -- -- 96
2018-02-12 21:00:00 -1.1 2 Sur 4 Sur 0 -- -- 95
2018-02-12 20:00:00 -0.5 0 Calma 11 Oeste 0 -- -- 92
2018-02-12 19:00:00 0.9 2 Oeste 13 Sudoeste 0 -- -- 86
2018-02-12 18:00:00 1.3 3 Sur 6 Noroeste 0 -- -- 90
2018-02-12 17:00:00 0.9 3 Noroeste 9 Noroeste 0 -- -- 86
2018-02-12 16:00:00 1.6 6 Norte 13 Oeste 0 -- -- 88
2018-02-12 15:00:00 2.3 4 Oeste 14 Noroeste 0 -- -- 84
2018-02-12 14:00:00 1.8 2 Sudoeste 7 Sudoeste 0 -- -- 84
2018-02-12 13:00:00 0.8 0 Calma 5 Noroeste 0 -- -- 89
2018-02-12 12:00:00 0.2 0 Calma 3 Noroeste 0 -- -- 96
2018-02-12 11:00:00 -1.1 0 Calma 2 Sudoeste 0 -- -- 100
2018-02-12 10:00:00 -2.5 0 Calma -- -- 0 -- -- 100
2018-02-12 09:00:00 -3.6 0 Calma -- -- 0 -- -- 100
2018-02-12 08:00:00 -3.5 0 Calma -- -- 0 -- -- 100
2018-02-12 07:00:00 -3.1 0 Calma -- -- 0 -- -- 99
2018-02-12 06:00:00 -2.9 0 Calma -- -- 0 -- -- 99
2018-02-12 05:00:00 -2.8 0 Calma -- -- 0 -- -- 98
2018-02-12 04:00:00 -2.5 0 Calma -- -- 0 -- -- 98
2018-02-12 03:00:00 -2 0 Calma -- -- 0 -- -- 98
2018-02-12 02:00:00 -1.5 0 Calma -- -- 0 -- -- 98
2018-02-12 01:00:00 -0.9 0 Calma 7 Norte 0 -- -- 99
2018-02-12 00:00:00 -0.4 0 Calma 25 Nordeste 0 -- -- 99
2018-02-11 23:00:00 0.5 9 Norte 26 Norte 0 -- -- 99
2018-02-11 22:00:00 1.2 9 Norte 30 Norte 0.2 -- -- 100
2018-02-11 21:00:00 1.7 10 Norte 25 Noroeste 0.2 -- -- 100
2018-02-11 20:00:00 2.6 7 Norte 26 Norte 0.4 -- -- 100
2018-02-11 19:00:00 3.7 13 Norte 29 Noroeste 0.4 -- -- 100
2018-02-11 18:00:00 5.2 10 Norte 26 Noroeste 0 -- -- 100
2018-02-11 17:00:00 5.7 10 Norte 35 Noroeste 2.4 -- -- 100
2018-02-11 16:00:00 7.3 6 Oeste 32 Sudoeste 1.6 -- -- 99
2018-02-11 15:00:00 7.3 16 Sudoeste 32 Sudoeste 1.6 -- -- 99
2018-02-11 14:00:00 7.2 12 Oeste 36 Oeste 0.6 -- -- 100
2018-02-11 13:00:00 6.7 19 Sudoeste 36 Sudoeste 0 -- -- 100
2018-02-11 12:00:00 6.6 19 Sudoeste 35 Oeste 0.2 -- -- 100
2018-02-11 11:00:00 6.4 9 Sudoeste 21 Sudoeste 0 -- -- 100
2018-02-11 10:00:00 6.4 4 Oeste 22 Sudoeste 0.4 -- -- 100
2018-02-11 09:00:00 6.3 5 Sudoeste 15 Sudoeste 0.2 -- -- 100
2018-02-11 08:00:00 6.1 3 Oeste 14 Sudoeste 0.2 -- -- 100
2018-02-11 07:00:00 6.1 0 Calma 7 Norte 0.2 -- -- 100
2018-02-11 06:00:00 5.9 3 Sur 6 Sudeste 0 -- -- 100
2018-02-11 05:00:00 5.8 0 Calma 5 Sur 0.2 -- -- 100
2018-02-11 04:00:00 5.4 0 Calma 7 Sudeste 0 -- -- 100
2018-02-11 03:00:00 5 0 Calma 4 Sudoeste 0.2 -- -- 100
2018-02-11 02:00:00 4.4 0 Calma 6 Sudeste 0.8 -- -- 100
2018-02-11 01:00:00 4 0 Calma 7 Sudeste 1 -- -- 100
2018-02-11 00:00:00 3.5 0 Calma 6 Sudeste 0.6 -- -- 100
2018-02-10 23:00:00 2.9 2 Sudeste 4 Sudeste 0.6 -- -- 100
2018-02-10 22:00:00 2.7 0 Calma 5 Sur 0.4 -- -- 100
2018-02-10 21:00:00 2.7 3 Sur 7 Sur 0.4 -- -- 100
2018-02-10 20:00:00 2.6 0 Calma 6 Sur 0.2 -- -- 100
2018-02-10 19:00:00 2.6 0 Calma 4 Nordeste 0 -- -- 100
2018-02-10 18:00:00 2.6 2 Nordeste 8 Norte 0 -- -- 100
2018-02-10 17:00:00 2.7 3 Norte 14 Norte 0 -- -- 99
2018-02-10 16:00:00 2.9 8 Norte 15 Noroeste 0 -- -- 97
2018-02-10 15:00:00 2.8 3 Norte 15 Nordeste 0 -- -- 98
2018-02-10 14:00:00 2.8 6 Norte 14 Norte 0 -- -- 96
2018-02-10 13:00:00 1.9 5 Norte 11 Nordeste 0 -- -- 100
2018-02-10 12:00:00 1.1 5 Nordeste 13 Norte 0 -- -- 99
2018-02-10 11:00:00 0.8 4 Nordeste 12 Nordeste 0 -- -- 100
2018-02-10 10:00:00 -0.5 3 Nordeste 12 Nordeste 0 -- -- 100
2018-02-10 09:00:00 -0.9 3 Nordeste 10 Nordeste 0 -- -- 100
2018-02-10 08:00:00 -1.1 0 Calma 8 Nordeste 0 -- -- 100
2018-02-10 07:00:00 -1.2 0 Calma 5 Nordeste 0 -- -- 100
2018-02-10 06:00:00 -1.2 0 Calma 3 Nordeste 0 -- -- 100
2018-02-10 05:00:00 -1.1 0 Calma 2 Nordeste 0 -- -- 100
2018-02-10 04:00:00 -1 0 Calma 6 Nordeste 0 -- -- 100
2018-02-10 03:00:00 -0.9 2 Nordeste 8 Nordeste 0 -- -- 100
2018-02-10 02:00:00 -0.8 4 Nordeste 15 Nordeste 0 -- -- 100
2018-02-10 01:00:00 -0.9 6 Nordeste 15 Nordeste 0 -- -- 100
2018-02-10 00:00:00 -0.8 5 Nordeste 12 Nordeste 0 -- -- 100
2018-02-09 23:00:00 -0.7 6 Nordeste 18 Nordeste 0 -- -- 100
2018-02-09 22:00:00 -0.3 4 Nordeste 9 Nordeste 0 -- -- 100
2018-02-09 21:00:00 0 0 Calma 18 Norte 0 -- -- 100
2018-02-09 20:00:00 0.6 9 Norte 20 Norte 0 -- -- 100
2018-02-09 19:00:00 1.5 9 Norte 23 Norte 0 -- -- 99
2018-02-09 18:00:00 2.1 8 Norte 25 Norte 0.4 -- -- 100
2018-02-09 17:00:00 2.7 6 Norte 28 Norte 0.2 -- -- 100
2018-02-09 16:00:00 3 9 Norte 24 Norte 0.2 -- -- 100
2018-02-09 15:00:00 2.9 7 Norte 24 Norte 0 -- -- 100
2018-02-09 14:00:00 2.5 6 Norte 27 Noroeste 0.2 -- -- 100
2018-02-09 13:00:00 2.7 9 Norte 22 Noroeste 0.2 -- -- 100
2018-02-09 12:00:00 2.6 4 Norte 14 Norte 0.2 -- -- 100
2018-02-09 11:00:00 2.5 5 Norte 13 Norte 0.2 -- -- 100
2018-02-09 10:00:00 2.6 2 Norte 20 Noroeste 0 -- -- 100
2018-02-09 09:00:00 2.6 4 Norte 10 Norte 0.8 -- -- 100
2018-02-09 08:00:00 2.3 0 Calma 4 Sudeste 0.2 -- -- 100
2018-02-09 07:00:00 2.3 0 Calma 5 Norte 0.6 -- -- 100
2018-02-09 06:00:00 2 2 Este 4 Este 0.4 -- -- 100
2018-02-09 05:00:00 1.1 2 Norte 12 Norte 1.8 -- -- 100
2018-02-09 04:00:00 1.2 4 Nordeste 7 Nordeste 1.8 -- -- 100
2018-02-09 03:00:00 0.6 0 Calma 5 Sudoeste 1.4 -- -- 100
2018-02-09 02:00:00 0.4 0 Calma 5 Sudoeste 1.4 -- -- 100
2018-02-09 01:00:00 0.3 0 Calma 2 Sur 0 -- -- 98
2018-02-09 00:00:00 0.3 0 Calma 8 Sudoeste 0 -- -- 95
2018-02-08 23:00:00 0.2 0 Calma 6 Oeste 0 -- -- 92
2018-02-08 22:00:00 0.1 3 Oeste 9 Sudoeste 0 -- -- 88
2018-02-08 21:00:00 -0.1 6 Sur 9 Sur 0 -- -- 90
2018-02-08 20:00:00 0.9 0 Calma 5 Oeste 0 -- -- 84
2018-02-08 19:00:00 2 3 Sudoeste 7 Sudoeste 0 -- -- 76
2018-02-08 18:00:00 3.6 4 Noroeste 9 Noroeste 0 -- -- 69
2018-02-08 17:00:00 4.3 5 Noroeste 16 Noroeste 0 -- -- 66
2018-02-08 16:00:00 3.9 5 Norte 10 Norte 0 -- -- 63
2018-02-08 15:00:00 3.5 5 Norte 17 Noroeste 0 -- -- 68
2018-02-08 14:00:00 2.9 2 Norte 10 Este 0 -- -- 62
2018-02-08 13:00:00 1.5 2 Norte 8 Este 0 -- -- 69
2018-02-08 12:00:00 -0.4 0 Calma 4 Norte 0 -- -- 82
2018-02-08 11:00:00 -1.9 0 Calma 3 Sur 0 -- -- 90
2018-02-08 10:00:00 -3.6 0 Calma 3 Sudoeste 0 -- -- 94
2018-02-08 09:00:00 -5.6 0 Calma 3 Sur 0 -- -- 100
2018-02-08 08:00:00 -6.2 0 Calma 4 Sudoeste 0 -- -- 100
2018-02-08 07:00:00 -6.5 2 Sur 3 Sur 0 -- -- 98
2018-02-08 06:00:00 -6.6 3 Sur 4 Sur 0 -- -- 97
2018-02-08 05:00:00 -6.3 3 Sur 5 Sur 0 -- -- 97
2018-02-08 04:00:00 -5.9 3 Sur 5 Sudoeste 0 -- -- 95
2018-02-08 03:00:00 -5.3 0 Calma 4 Sudoeste 0 -- -- 95
2018-02-08 02:00:00 -5 0 Calma 4 Sur 0 -- -- 95
2018-02-08 01:00:00 -4.7 0 Calma 3 Nordeste 0 -- -- 94
2018-02-08 00:00:00 -4 2 Nordeste 4 Nordeste 0 -- -- 92
2018-02-07 23:00:00 -3.4 0 Calma 6 Este 0 -- -- 92
2018-02-07 22:00:00 -3.2 0 Calma 6 Nordeste 0 -- -- 93
2018-02-07 21:00:00 -2.4 2 Norte 16 Nordeste 0 -- -- 88
2018-02-07 20:00:00 -1.8 3 Nordeste 15 Norte 0 -- -- 89
2018-02-07 19:00:00 -1.3 6 Norte 20 Noroeste 0 -- -- 93
2018-02-07 18:00:00 -0.5 5 Norte 17 Nordeste 0 -- -- 88
2018-02-07 17:00:00 0.2 14 Norte 31 Norte 0 -- -- 87
2018-02-07 16:00:00 1.1 14 Norte 32 Norte 0 -- -- 83
2018-02-07 15:00:00 0.3 12 Norte 28 Norte 0 -- -- 88
2018-02-07 14:00:00 0 4 Norte 18 Norte 0 -- -- 91
2018-02-07 13:00:00 -0.7 3 Norte 12 Norte 0 -- -- 96
2018-02-07 12:00:00 -1.6 6 Norte 13 Norte 0 -- -- 100
2018-02-07 11:00:00 -2 0 Calma 10 Nordeste 0 -- -- 100
2018-02-07 10:00:00 -2.3 4 Norte 10 Nordeste 0 -- -- 100
2018-02-07 09:00:00 -2.4 3 Norte 13 Nordeste 0 -- -- 100
2018-02-07 08:00:00 -2.3 4 Nordeste 13 Nordeste 0 -- -- 100
2018-02-07 07:00:00 -2.3 4 Norte 14 Norte 0 -- -- 100
2018-02-07 06:00:00 -2.3 8 Norte 21 Norte 0 -- -- 100
2018-02-07 05:00:00 -2.2 3 Norte 14 Norte 0 -- -- 100
2018-02-07 04:00:00 -2.1 5 Nordeste 17 Nordeste 0 -- -- 100
2018-02-07 03:00:00 -2 3 Nordeste 18 Norte 0 -- -- 100
2018-02-07 02:00:00 -1.8 4 Nordeste 17 Noroeste 0 -- -- 100
2018-02-07 01:00:00 -1.7 3 Norte 13 Nordeste 0 -- -- 100
2018-02-07 00:00:00 -2.2 0 Calma 9 Este 0 -- -- 99
2018-02-06 23:00:00 -2.2 0 Calma 5 Norte 0 -- -- 98
2018-02-06 22:00:00 -1.9 2 Este 9 Nordeste 0 -- -- 98
2018-02-06 21:00:00 -1.4 0 Calma 9 Noroeste 0 -- -- 96
2018-02-06 20:00:00 -1.1 2 Norte 16 Norte 0 -- -- 94
2018-02-06 19:00:00 -0.3 4 Norte 17 Norte 0 -- -- 92
2018-02-06 18:00:00 0 4 Norte 19 Norte 0 -- -- 88
2018-02-06 17:00:00 0.2 8 Norte 26 Norte 0 -- -- 86
2018-02-06 16:00:00 -0.3 5 Norte 19 Norte 0 -- -- 89
2018-02-06 15:00:00 -0.6 8 Norte 22 Norte 0 -- -- 89
2018-02-06 14:00:00 -1 9 Norte 18 Noroeste 0 -- -- 91
2018-02-06 13:00:00 -0.6 5 Norte 19 Norte 0 -- -- 89
2018-02-06 12:00:00 -0.5 5 Norte 18 Nordeste 0 -- -- 87
2018-02-06 11:00:00 -1.2 5 Norte 18 Norte 0 -- -- 87
2018-02-06 10:00:00 -2.6 2 Nordeste 9 Nordeste 0 -- -- 91
2018-02-06 09:00:00 -4 2 Norte 17 Norte 0 -- -- 91
2018-02-06 08:00:00 -4.1 2 Nordeste 12 Nordeste 0 -- -- 91
2018-02-06 07:00:00 -5 0 Calma 12 Norte 0 -- -- 95
2018-02-06 06:00:00 -5.9 0 Calma 5 Nordeste 0 -- -- 95
2018-02-06 05:00:00 -5.8 2 Este 5 Nordeste 0 -- -- 94
2018-02-06 04:00:00 -5.6 0 Calma 4 Nordeste 0 -- -- 93
2018-02-06 03:00:00 -5.3 3 Este 5 Sur 0 -- -- 91
2018-02-06 02:00:00 -4.7 0 Calma 6 Norte 0 -- -- 92
2018-02-06 01:00:00 -4 4 Norte 11 Este 0 -- -- 91
2018-02-06 00:00:00 -4.2 3 Nordeste 12 Norte 0 -- -- 93
2018-02-05 23:00:00 -3.9 0 Calma 6 Norte 0 -- -- 94
2018-02-05 22:00:00 -3.8 0 Calma 9 Nordeste 0 -- -- 92
2018-02-05 21:00:00 -3.3 5 Norte 17 Norte 0 -- -- 90
2018-02-05 20:00:00 -2.7 6 Norte 19 Norte 0 -- -- 86
2018-02-05 19:00:00 -1.8 8 Norte 27 Noroeste 0 -- -- 78
2018-02-05 18:00:00 -0.6 13 Norte 33 Nordeste 0 -- -- 74
2018-02-05 17:00:00 -0.5 10 Norte 39 Norte 0 -- -- 71
2018-02-05 16:00:00 -0.1 11 Norte 33 Norte 0 -- -- 77
2018-02-05 15:00:00 0.2 9 Norte 34 Norte 0 -- -- 75
2018-02-05 14:00:00 0 6 Norte 29 Nordeste 0 -- -- 86
2018-02-05 13:00:00 -0.6 10 Norte 34 Norte 0.2 -- -- 95
2018-02-05 12:00:00 -0.6 13 Norte 31 Norte 0 -- -- 100
2018-02-05 11:00:00 -0.8 6 Norte 21 Norte 0 -- -- 100
2018-02-05 10:00:00 -1.2 4 Nordeste 20 Norte 0 -- -- 100
2018-02-05 09:00:00 -1.4 5 Norte 20 Norte 0 -- -- 100
2018-02-05 08:00:00 -1.4 5 Nordeste 17 Norte 0 -- -- 100
2018-02-05 07:00:00 -1.4 3 Norte 15 Noroeste 0 -- -- 100
2018-02-05 06:00:00 -1.4 9 Nordeste 20 Nordeste 0 -- -- 100
2018-02-05 05:00:00 -1.4 3 Nordeste 14 Nordeste 0 -- -- 100
2018-02-05 04:00:00 -1.5 5 Nordeste 11 Nordeste 0 -- -- 100
2018-02-05 03:00:00 -1.4 7 Nordeste 20 Norte 0 -- -- 100
2018-02-05 02:00:00 -1.2 5 Nordeste 19 Norte 0 -- -- 100
2018-02-05 01:00:00 -1.1 4 Norte 20 Nordeste 0 -- -- 100
2018-02-05 00:00:00 -0.9 8 Nordeste 17 Norte 0 -- -- 100
2018-02-04 23:00:00 -0.5 4 Este 12 Nordeste 0 -- -- 100
2018-02-04 22:00:00 -0.3 3 Nordeste 7 Nordeste 0 -- -- 100
2018-02-04 21:00:00 -0.2 2 Norte 12 Nordeste 0 -- -- 100
2018-02-04 20:00:00 -0.2 4 Nordeste 14 Nordeste 0 -- -- 100
2018-02-04 19:00:00 0 4 Norte 18 Norte 0 -- -- 98
2018-02-04 18:00:00 0.8 5 Noroeste 24 Nordeste 0.4 -- -- 96
2018-02-04 17:00:00 1.4 6 Norte 21 Noroeste 0.8 -- -- 96
2018-02-04 16:00:00 0.8 6 Norte 20 Norte 1.2 -- -- 98
2018-02-04 15:00:00 0.5 7 Norte 20 Norte 1.2 -- -- 98
2018-02-04 14:00:00 0.6 8 Norte 20 Nordeste 1.6 -- -- 95
2018-02-04 13:00:00 0.4 4 Norte 14 Norte 0.8 -- -- 96
2018-02-04 12:00:00 -0.7 3 Norte 13 Norte 0 -- -- 100
2018-02-04 11:00:00 -1.7 6 Norte 14 Noroeste 0 -- -- 100
2018-02-04 10:00:00 -1.9 3 Nordeste 9 Nordeste 0 -- -- 100
2018-02-04 09:00:00 -2 0 Calma 17 Nordeste 0 -- -- 100
2018-02-04 08:00:00 -2.1 10 Nordeste 17 Nordeste 0 -- -- 100
2018-02-04 07:00:00 -1.9 3 Norte 18 Nordeste 0 -- -- 100
2018-02-04 06:00:00 -1.7 4 Norte 16 Norte 0 -- -- 100
2018-02-04 05:00:00 -1.4 3 Nordeste 17 Norte 0 -- -- 100
2018-02-04 04:00:00 -1.2 6 Norte 15 Norte 0 -- -- 100
2018-02-04 03:00:00 -0.9 6 Norte 23 Norte 0 -- -- 100
2018-02-04 02:00:00 -0.5 11 Norte 27 Norte 0 -- -- 100
2018-02-04 01:00:00 0.1 6 Norte 36 Norte 0 -- -- 100
2018-02-04 00:00:00 0.2 7 Norte 27 Noroeste 0 -- -- 100
2018-02-03 23:00:00 0.4 10 Noroeste 32 Noroeste 0.6 -- -- 100
2018-02-03 22:00:00 1 14 Noroeste 27 Noroeste 1.6 -- -- 100
2018-02-03 21:00:00 1.4 10 Noroeste 26 Norte 1.8 -- -- 100
2018-02-03 20:00:00 1.6 11 Norte 32 Norte 1 -- -- 100
2018-02-03 19:00:00 2.3 11 Norte 26 Nordeste 0.2 -- -- 100
2018-02-03 18:00:00 2.5 6 Norte 28 Norte 1.2 -- -- 100
2018-02-03 17:00:00 3.4 14 Noroeste 28 Norte 1 -- -- 100
2018-02-03 16:00:00 3.7 6 Noroeste 25 Oeste 0.2 -- -- 100
2018-02-03 15:00:00 3.8 3 Oeste 15 Oeste 1 -- -- 100
2018-02-03 14:00:00 3.3 4 Oeste 21 Oeste 0.8 -- -- 100
2018-02-03 13:00:00 3.4 5 Sudoeste 15 Sudoeste 0.4 -- -- 100
2018-02-03 12:00:00 2.3 2 Oeste 7 Oeste 1 -- -- 100
2018-02-03 11:00:00 1.2 0 Calma 6 Sudoeste 0.8 -- -- 100
2018-02-03 10:00:00 0.6 0 Calma 6 Sudeste 0 -- -- 100
2018-02-03 09:00:00 0.2 0 Calma 4 Sur 0 -- -- 100
2018-02-03 08:00:00 0 0 Calma 5 Sudeste 0 -- -- 100
2018-02-03 07:00:00 -0.1 2 Sudeste 5 Sudeste 0 -- -- 100
2018-02-03 06:00:00 -0.4 0 Calma 3 Norte 0 -- -- 100
2018-02-03 05:00:00 -0.6 0 Calma 2 Oeste 0 -- -- 100
2018-02-03 04:00:00 -0.8 0 Calma 2 Sudoeste 0 -- -- 100
2018-02-03 03:00:00 -1 2 Norte 4 Norte 0 -- -- 100
2018-02-03 02:00:00 -1.4 0 Calma 3 Norte 0 -- -- 100
2018-02-03 01:00:00 -1.9 0 Calma 2 Nordeste 0 -- -- 99
2018-02-03 00:00:00 -1.5 0 Calma 11 Norte 0 -- -- 99
2018-02-02 23:00:00 -1.3 4 Norte 13 Norte 0 -- -- 99
2018-02-02 22:00:00 -1.9 3 Norte 7 Norte 0 -- -- 98
2018-02-02 21:00:00 -1.9 2 Este 5 Norte 0 -- -- 98
2018-02-02 20:00:00 -1.3 0 Calma 5 Norte 0 -- -- 95
2018-02-02 19:00:00 -0.5 0 Calma 12 Norte 0 -- -- 92
2018-02-02 18:00:00 0.2 3 Norte 16 Norte 0.2 -- -- 86
2018-02-02 17:00:00 0.8 3 Norte 39 Nordeste 0.2 -- -- 90
2018-02-02 16:00:00 1 9 Norte 22 Nordeste 0.6 -- -- 88
2018-02-02 15:00:00 0.7 8 Norte 21 Norte 0.4 -- -- 91
2018-02-02 14:00:00 0.5 6 Norte 21 Norte 1.2 -- -- 93
2018-02-02 13:00:00 -0.3 5 Norte 20 Norte 0 -- -- 95
2018-02-02 12:00:00 -1.2 4 Norte 12 Nordeste 0 -- -- 100
2018-02-02 11:00:00 -1.5 4 Norte 15 Nordeste 0 -- -- 100
2018-02-02 10:00:00 -1.7 3 Norte 14 Norte 0 -- -- 100
2018-02-02 09:00:00 -1.8 2 Norte 8 Norte 0 -- -- 100
2018-02-02 08:00:00 -1.8 4 Norte 17 Norte 0 -- -- 100
2018-02-02 07:00:00 -1.5 2 Norte 5 Nordeste 0 -- -- 100
2018-02-02 06:00:00 -1.5 0 Calma 4 Noroeste 0 -- -- 100
2018-02-02 05:00:00 -1.6 2 Norte 6 Nordeste 0 -- -- 100
2018-02-02 04:00:00 -1.7 4 Nordeste 17 Nordeste 0 -- -- 100
2018-02-02 03:00:00 -1.6 4 Norte 11 Norte 0 -- -- 100
2018-02-02 02:00:00 -1.4 3 Nordeste 14 Nordeste 0 -- -- 99
2018-02-02 01:00:00 -1.2 6 Nordeste 21 Norte 0 -- -- 100
2018-02-02 00:00:00 -1.1 5 Norte 32 Norte 0 -- -- 100
2018-02-01 23:00:00 -0.8 10 Norte 29 Norte 0 -- -- 100
2018-02-01 22:00:00 -0.9 5 Norte 23 Nordeste 0 -- -- 100
2018-02-01 21:00:00 -0.7 5 Norte 27 Norte 0 -- -- 100
2018-02-01 20:00:00 -0.6 6 Norte 22 Norte 0 -- -- 100
2018-02-01 19:00:00 -0.3 7 Norte 24 Norte 0 -- -- 99
2018-02-01 18:00:00 0.2 6 Norte 48 Nordeste 0.4 -- -- 95
2018-02-01 17:00:00 0.6 14 Norte 31 Noroeste 0.4 -- -- 97
2018-02-01 16:00:00 1 18 Norte 46 Norte 1.4 -- -- 93
2018-02-01 15:00:00 0.7 15 Norte 33 Norte 0 -- -- 100
2018-02-01 14:00:00 0.6 13 Norte 35 Noroeste 0.4 -- -- 98
2018-02-01 13:00:00 2.2 11 Noroeste 28 Noroeste 0 -- -- 98
2018-02-01 12:00:00 1.4 12 Norte 40 Nordeste 0 -- -- 99
2018-02-01 11:00:00 1.1 13 Norte 32 Norte 0 -- -- 100
2018-02-01 10:00:00 1.1 6 Norte 28 Nordeste 0.4 -- -- 100
2018-02-01 09:00:00 1.3 9 Norte 27 Nordeste 0 -- -- 99
2018-02-01 08:00:00 1.4 8 Norte 34 Norte 0.4 -- -- 100
2018-02-01 07:00:00 1.4 10 Norte 36 Norte 1.4 -- -- 100
2018-02-01 06:00:00 3.1 12 Norte 27 Norte 1.2 -- -- 100
2018-02-01 05:00:00 3.6 3 Norte 7 Norte 0.8 -- -- 100
2018-02-01 04:00:00 3.7 2 Norte 8 Norte 0 -- -- 100
2018-02-01 03:00:00 3.8 4 Norte 16 Noroeste 0 -- -- 100
2018-02-01 02:00:00 4 4 Norte 13 Norte 0 -- -- 100
2018-02-01 01:00:00 4.3 2 Norte 6 Nordeste 0 -- -- 99
2018-02-01 00:00:00 3.9 0 Calma 3 Oeste 0 -- -- 96
2018-01-31 23:00:00 3.8 2 Sur 6 Sur 0 -- -- 83
2018-01-31 22:00:00 3.5 4 Sur 6 Sur 0 -- -- 83
2018-01-31 21:00:00 4.4 0 Calma 8 Noroeste 0 -- -- 76
2018-01-31 20:00:00 5.7 0 Calma 5 Nordeste 0 -- -- 73
2018-01-31 19:00:00 7.8 0 Calma 6 Oeste 0 -- -- 56
2018-01-31 18:00:00 10.6 3 Oeste 13 Sudoeste 0 -- -- 47
2018-01-31 17:00:00 11.7 7 Oeste 17 Noroeste 0 -- -- 32
2018-01-31 16:00:00 12.9 7 Oeste 21 Oeste 0 -- -- 35
2018-01-31 15:00:00 13.8 9 Oeste 18 Noroeste 0 -- -- 29
2018-01-31 14:00:00 12.4 3 Sudoeste 12 Sudoeste 0 -- -- 36
2018-01-31 13:00:00 11.6 4 Sudoeste 8 Sudoeste 0 -- -- 44
2018-01-31 12:00:00 7.9 0 Calma 10 Oeste 0 -- -- 60
2018-01-31 11:00:00 3.6 3 Sudoeste 8 Sudoeste 0 -- -- 73
2018-01-31 10:00:00 0.5 2 Sur 7 Oeste 0 -- -- 89
2018-01-31 09:00:00 -0.9 3 Sudoeste 9 Sudoeste 0 -- -- 90
2018-01-31 08:00:00 -1 2 Sudoeste 8 Sur 0 -- -- 91
2018-01-31 07:00:00 -0.8 4 Sudoeste 9 Sudoeste 0 -- -- 91
2018-01-31 06:00:00 -0.8 3 Sudoeste 9 Sudoeste 0 -- -- 89
2018-01-31 05:00:00 -0.9 3 Sudoeste 8 Sudoeste 0 -- -- 90
2018-01-31 04:00:00 -0.6 3 Sudoeste 6 Oeste 0 -- -- 88
2018-01-31 03:00:00 -0.3 2 Sur 9 Oeste 0 -- -- 84
2018-01-31 02:00:00 -0.3 3 Sudoeste 5 Sudoeste 0 -- -- 86
2018-01-31 01:00:00 0.2 2 Sudoeste 5 Sudoeste 0 -- -- 84
2018-01-31 00:00:00 0.8 3 Sudoeste 7 Sudoeste 0 -- -- 81
2018-01-30 23:00:00 1.3 0 Calma 8 Oeste 0 -- -- 79
2018-01-30 22:00:00 2.2 3 Sudoeste 5 Sudoeste 0 -- -- 75
2018-01-30 21:00:00 3.4 3 Sudoeste 6 Sur 0 -- -- 70
2018-01-30 20:00:00 5.2 5 Sur 12 Sur 0 -- -- 63
2018-01-30 19:00:00 8.2 6 Sur 14 Sur 0 -- -- 54
2018-01-30 18:00:00 11.8 0 Calma 11 Oeste 0 -- -- 40
2018-01-30 17:00:00 13.4 3 Noroeste 13 Norte 0 -- -- 37
2018-01-30 16:00:00 13.4 6 Nordeste 13 Norte 0 -- -- 34
2018-01-30 15:00:00 13.2 4 Norte 11 Nordeste 0 -- -- 35
2018-01-30 14:00:00 11.9 6 Nordeste 12 Nordeste 0 -- -- 36
2018-01-30 13:00:00 9.8 6 Nordeste 11 Nordeste 0 -- -- 43
2018-01-30 12:00:00 7.5 0 Calma 8 Sudoeste 0 -- -- 53
2018-01-30 11:00:00 2.8 3 Sudoeste 9 Oeste 0 -- -- 68
2018-01-30 10:00:00 -0.6 0 Calma 6 Sudoeste 0 -- -- 83
2018-01-30 09:00:00 -1.6 3 Sudoeste 6 Sudoeste 0 -- -- 86
2018-01-30 08:00:00 -1.4 3 Sudoeste 9 Sudoeste 0 -- -- 86
2018-01-30 07:00:00 -1.3 4 Sudoeste 8 Sudoeste 0 -- -- 86
2018-01-30 06:00:00 -1.4 2 Sudoeste 5 Sudoeste 0 -- -- 85
2018-01-30 05:00:00 -1 2 Sur 7 Sudoeste 0 -- -- 87
2018-01-30 04:00:00 -0.7 3 Sudoeste 6 Sudoeste 0 -- -- 90
2018-01-30 03:00:00 0 3 Sur 5 Sudoeste 0 -- -- 86
2018-01-30 02:00:00 0.5 3 Sur 9 Sudoeste 0 -- -- 91
2018-01-30 01:00:00 1 0 Calma 7 Oeste 0 -- -- 90
2018-01-30 00:00:00 1.4 3 Oeste 13 Oeste 0 -- -- 89
2018-01-29 23:00:00 1.4 3 Sudoeste 5 Oeste 0 -- -- 85
2018-01-29 22:00:00 2.5 3 Sur 6 Sudoeste 0 -- -- 78
2018-01-29 21:00:00 3.7 3 Sudoeste 7 Sudoeste 0 -- -- 71
2018-01-29 20:00:00 5.7 3 Sudoeste 8 Sudoeste 0 -- -- 62
2018-01-29 19:00:00 8.1 4 Sur 8 Sur 0 -- -- 52
2018-01-29 18:00:00 11.4 3 Sudeste 15 Nordeste 0 -- -- 46
2018-01-29 17:00:00 12.5 9 Norte 20 Norte 0 -- -- 38
2018-01-29 16:00:00 12.7 9 Norte 20 Nordeste 0 -- -- 41
2018-01-29 15:00:00 12.5 9 Norte 20 Norte 0 -- -- 45
2018-01-29 14:00:00 11.7 5 Norte 14 Nordeste 0 -- -- 47
2018-01-29 13:00:00 10.5 3 Nordeste 10 Este 0 -- -- 51
2018-01-29 12:00:00 6.7 2 Sudoeste 5 Oeste 0 -- -- 72
2018-01-29 11:00:00 2.7 2 Oeste 8 Sur 0 -- -- 86
2018-01-29 10:00:00 0 2 Sur 7 Sudoeste 0 -- -- 100
2018-01-29 09:00:00 -0.9 4 Sudoeste 7 Sudoeste 0 -- -- 98
2018-01-29 08:00:00 -0.5 0 Calma 4 Sur 0 -- -- 97
2018-01-29 07:00:00 0.1 3 Sudoeste 5 Sudoeste 0 -- -- 93
2018-01-29 06:00:00 0.7 0 Calma 5 Sudoeste 0 -- -- 93
2018-01-29 05:00:00 1.7 2 Sudeste 7 Nordeste 0 -- -- 88
2018-01-29 04:00:00 2.6 0 Calma 18 Nordeste 0 -- -- 83
2018-01-29 03:00:00 3.7 5 Nordeste 16 Sudeste 0 -- -- 78
2018-01-29 02:00:00 4.7 3 Sudoeste 19 Sudeste 0 -- -- 75
2018-01-29 01:00:00 5.6 7 Sudeste 27 Sudoeste 0 -- -- 71
2018-01-29 00:00:00 6.4 8 Sudeste 33 Sudeste 0 -- -- 68
2018-01-28 23:00:00 6.3 8 Sudeste 19 Sur 0 -- -- 67
2018-01-28 22:00:00 6.5 4 Sur 24 Este 0 -- -- 66
2018-01-28 21:00:00 6.6 3 Nordeste 12 Noroeste 0 -- -- 65
2018-01-28 20:00:00 7.5 5 Sudeste 27 Este 0 -- -- 61
2018-01-28 19:00:00 8.1 10 Sudeste 20 Este 0 -- -- 59
2018-01-28 18:00:00 10.2 3 Sur 9 Sur 0 -- -- 55
2018-01-28 17:00:00 10.9 4 Norte 31 Norte 0 -- -- 51
2018-01-28 16:00:00 11.4 4 Norte 21 Nordeste 0 -- -- 51
2018-01-28 15:00:00 10.3 4 Norte 11 Norte 0 -- -- 57
2018-01-28 14:00:00 8.5 7 Nordeste 20 Norte 0 -- -- 68
2018-01-28 13:00:00 5.7 6 Nordeste 11 Nordeste 0 -- -- 87
2018-01-28 12:00:00 3.5 4 Norte 11 Sur 0 -- -- 100
2018-01-28 11:00:00 1.3 0 Calma 6 Sur 0 -- -- 100
2018-01-28 10:00:00 -0.8 0 Calma 4 Sudoeste 0 -- -- 100
2018-01-28 09:00:00 -1.1 0 Calma 6 Sur 0 -- -- 100
2018-01-28 08:00:00 -0.5 0 Calma 5 Sur 0 -- -- 100
2018-01-28 07:00:00 0 0 Calma 3 Norte 0 -- -- 100
2018-01-28 06:00:00 0.6 0 Calma 5 Sudoeste 0 -- -- 100
2018-01-28 05:00:00 1.7 3 Sudeste 8 Nordeste 0 -- -- 100
2018-01-28 04:00:00 1.8 2 Este 7 Este 0 -- -- 100
2018-01-28 03:00:00 2.5 0 Calma 7 Sudeste 0 -- -- 100
2018-01-28 02:00:00 2.7 3 Sur 6 Sur 0 -- -- 100
2018-01-28 01:00:00 3.4 2 Sur 4 Oeste 0 -- -- 100
2018-01-28 00:00:00 4 0 Calma 9 Norte 0 -- -- 100
2018-01-27 23:00:00 4.4 3 Norte 20 Nordeste 0 -- -- 99
2018-01-27 22:00:00 4.6 8 Nordeste 18 Nordeste 0 -- -- 99
2018-01-27 21:00:00 3.9 5 Nordeste 13 Nordeste 0 -- -- 100
2018-01-27 20:00:00 3.6 5 Nordeste 14 Norte 0 -- -- 100
2018-01-27 19:00:00 3.8 3 Este 17 Norte 0 -- -- 100
2018-01-27 18:00:00 4.1 3 Norte 14 Norte 0 -- -- 97
2018-01-27 17:00:00 4.2 3 Noroeste 17 Noroeste 0 -- -- 98
2018-01-27 16:00:00 4.3 6 Norte 16 Nordeste 0 -- -- 94
2018-01-27 15:00:00 4.2 5 Nordeste 17 Norte 0 -- -- 93
2018-01-27 14:00:00 4 9 Nordeste 18 Nordeste 0 -- -- 92
2018-01-27 13:00:00 3.9 5 Nordeste 17 Norte 0 -- -- 92
2018-01-27 12:00:00 3.4 6 Nordeste 18 Norte 0 -- -- 99
2018-01-27 11:00:00 2.3 3 Norte 13 Norte 0 -- -- 100
2018-01-27 10:00:00 1.6 2 Norte 12 Norte 0 -- -- 100
2018-01-27 09:00:00 1.3 2 Nordeste 13 Nordeste 0 -- -- 100
2018-01-27 08:00:00 1.1 3 Norte 12 Norte 0 -- -- 100
2018-01-27 07:00:00 0.8 4 Norte 14 Norte 0 -- -- 100
2018-01-27 06:00:00 0.8 2 Nordeste 16 Nordeste 0 -- -- 100
2018-01-27 05:00:00 0.9 3 Norte 13 Norte 0 -- -- 100
2018-01-27 04:00:00 1.1 5 Norte 15 Noroeste 0 -- -- 100
2018-01-27 03:00:00 1.1 4 Norte 17 Norte 0 -- -- 100
2018-01-27 02:00:00 1 5 Norte 22 Norte 0 -- -- 100
2018-01-27 01:00:00 1.2 6 Norte 23 Nordeste 0.2 -- -- 100
2018-01-27 00:00:00 1.1 5 Norte 19 Norte 0 -- -- 100
2018-01-26 23:00:00 1.1 5 Norte 25 Norte 0 -- -- 100
2018-01-26 22:00:00 1.4 8 Norte 24 Norte 0.6 -- -- 100
2018-01-26 21:00:00 1.4 10 Norte 23 Nordeste 0.4 -- -- 100
2018-01-26 20:00:00 1.7 10 Norte 35 Norte 0.2 -- -- 100
2018-01-26 19:00:00 1.7 8 Norte 26 Norte 0.4 -- -- 100
2018-01-26 18:00:00 1.8 5 Norte 22 Norte 1.4 -- -- 100
2018-01-26 17:00:00 1.8 6 Norte 26 Noroeste 0.8 -- -- 100
2018-01-26 16:00:00 1.1 9 Norte 27 Noroeste 0.2 -- -- 98
2018-01-26 15:00:00 2.3 6 Norte 20 Noroeste 0.8 -- -- 100
2018-01-26 14:00:00 1.7 5 Norte 32 Norte 0.8 -- -- 100
2018-01-26 13:00:00 1.2 12 Norte 31 Nordeste 1.8 -- -- 100
2018-01-26 12:00:00 0.9 9 Norte 31 Norte 1.2 -- -- 100
2018-01-26 11:00:00 0.5 9 Norte 30 Noroeste 0.6 -- -- 100
2018-01-26 10:00:00 0.3 7 Norte 20 Norte 0 -- -- 100
2018-01-26 09:00:00 0.2 5 Norte 10 Norte 0 -- -- 100
2018-01-26 08:00:00 0.1 3 Norte 11 Noroeste 0 -- -- 100
2018-01-26 07:00:00 0.2 3 Norte 14 Noroeste 0 -- -- 100
2018-01-26 06:00:00 0.2 4 Noroeste 14 Noroeste 0 -- -- 100
2018-01-26 05:00:00 0.1 0 Calma 9 Norte 0 -- -- 100
2018-01-26 04:00:00 0 2 Norte 11 Norte 0 -- -- 100
2018-01-26 03:00:00 0.2 5 Norte 18 Noroeste 0.2 -- -- 100
2018-01-26 02:00:00 0.4 3 Norte 12 Oeste 0 -- -- 100
2018-01-26 01:00:00 0.6 3 Noroeste 17 Noroeste 0.2 -- -- 100
2018-01-26 00:00:00 0.6 0 Calma 16 Noroeste 0.2 -- -- 100
2018-01-25 23:00:00 0.3 0 Calma 20 Norte 0 -- -- 100
2018-01-25 22:00:00 0.5 8 Noroeste 17 Noroeste 0 -- -- 100
2018-01-25 21:00:00 0.7 4 Noroeste 18 Oeste 0 -- -- 99
2018-01-25 20:00:00 0.9 8 Noroeste 24 Noroeste 0 -- -- 99
2018-01-25 19:00:00 1.1 8 Norte 23 Noroeste 0.2 -- -- 99
2018-01-25 18:00:00 1.4 9 Norte 22 Norte 0.6 -- -- 98
2018-01-25 17:00:00 1.7 4 Norte 14 Norte 1.4 -- -- 100
2018-01-25 16:00:00 1.2 5 Norte 27 Noroeste 1.8 -- -- 100
2018-01-25 15:00:00 0.5 0 Calma 10 Norte 0 -- -- 100
2018-01-25 14:00:00 1 8 Norte 18 Norte 2.2 -- -- 100
2018-01-25 13:00:00 1.4 2 Sudeste 19 Norte 2 -- -- 98
2018-01-25 12:00:00 2.5 8 Norte 20 Noroeste 1.4 -- -- 99
2018-01-25 11:00:00 3 0 Calma 9 Oeste 0.8 -- -- 100
2018-01-25 10:00:00 3 5 Oeste 30 Sudoeste 2 -- -- 98
2018-01-25 09:00:00 3.9 12 Sudoeste 36 Sudoeste 1.6 -- -- 98
2018-01-25 08:00:00 4.6 0 Calma 12 Noroeste 0.4 -- -- 100
2018-01-25 07:00:00 5.1 9 Oeste 22 Sudoeste 0.6 -- -- 100
2018-01-25 06:00:00 5.8 11 Sudoeste 26 Sudoeste 1.8 -- -- 100
2018-01-25 05:00:00 5.9 11 Sudoeste 39 Sudoeste 0.8 -- -- 98
2018-01-25 04:00:00 6.1 27 Sur 61 Sur 0 -- -- 97
2018-01-25 03:00:00 6.3 41 Sur 63 Sur 0 -- -- 96
2018-01-25 02:00:00 6.4 35 Sur 59 Sur 0 -- -- 95
2018-01-25 01:00:00 6.5 31 Sur 56 Sur 0 -- -- 96
2018-01-25 00:00:00 6.4 29 Sur 56 Sur 0 -- -- 96
2018-01-24 23:00:00 6.5 20 Sur 39 Sur 0 -- -- 95
2018-01-24 22:00:00 6.7 23 Sur 36 Sur 0 -- -- 95
2018-01-24 21:00:00 6.7 24 Sur 37 Sur 0 -- -- 93
2018-01-24 20:00:00 6.7 27 Sur 41 Sur 0 -- -- 93
2018-01-24 19:00:00 6.9 23 Sur 38 Sur 0 -- -- 91
2018-01-24 18:00:00 7.9 19 Sudoeste 37 Sur 0 -- -- 86
2018-01-24 17:00:00 8.6 10 Sur 27 Sur 0 -- -- 83
2018-01-24 16:00:00 7.9 17 Sur 35 Sur 0 -- -- 91
2018-01-24 15:00:00 8.8 18 Sudoeste 32 Sudoeste 0 -- -- 87
2018-01-24 14:00:00 8.2 4 Sudoeste 13 Sudoeste 0 -- -- 84
2018-01-24 13:00:00 5.4 0 Calma 9 Norte 0 -- -- 93
2018-01-24 12:00:00 4.2 3 Norte 8 Sudoeste 0 -- -- 100
2018-01-24 11:00:00 1.5 2 Oeste 8 Oeste 0 -- -- 100
2018-01-24 10:00:00 0.2 4 Oeste 10 Sudoeste 0 -- -- 100
2018-01-24 09:00:00 -1.2 5 Sur 13 Sur 0 -- -- 100
2018-01-24 08:00:00 -1.7 9 Sur 19 Sur 0 -- -- 100
2018-01-24 07:00:00 -1 3 Sudoeste 5 Sudoeste 0 -- -- 100
2018-01-24 06:00:00 -0.8 0 Calma 4 Sur 0 -- -- 100
2018-01-24 05:00:00 -0.2 0 Calma 4 Sur 0 -- -- 100
2018-01-24 04:00:00 0.5 0 Calma 5 Norte 0 -- -- 100
2018-01-24 03:00:00 1.1 0 Calma 5 Nordeste 0 -- -- 100
2018-01-24 02:00:00 2 0 Calma 5 Sur 0 -- -- 100
2018-01-24 01:00:00 2.5 0 Calma 7 Oeste 0 -- -- 98
2018-01-24 00:00:00 3.4 0 Calma 5 Sudoeste 0 -- -- 98
2018-01-23 23:00:00 3.6 0 Calma 4 Oeste 0 -- -- 97
2018-01-23 22:00:00 3.7 2 Sur 5 Sudoeste 0 -- -- 94
2018-01-23 21:00:00 4.2 3 Sur 5 Sur 0 -- -- 92
2018-01-23 20:00:00 4.8 3 Sur 5 Sur 0 -- -- 93
2018-01-23 19:00:00 6.2 0 Calma 9 Norte 0 -- -- 87
2018-01-23 18:00:00 8.2 7 Nordeste 12 Nordeste 0 -- -- 81
2018-01-23 17:00:00 9.9 4 Norte 12 Nordeste 0 -- -- 75
2018-01-23 16:00:00 10.8 4 Noroeste 9 Sur 0 -- -- 72
2018-01-23 15:00:00 9.6 4 Sur 12 Sur 0 -- -- 78
2018-01-23 14:00:00 7.5 5 Sur 10 Sur 0 -- -- 86
2018-01-23 13:00:00 6.2 4 Sudoeste 9 Sur 0 -- -- 90
2018-01-23 12:00:00 4.8 3 Sur 8 Sur 0 -- -- 99
2018-01-23 11:00:00 3.4 0 Calma 10 Sudoeste 0 -- -- 100
2018-01-23 10:00:00 2.5 3 Sur 8 Sur 0 -- -- 100
2018-01-23 09:00:00 1.9 3 Sudoeste 6 Sur 0 -- -- 100
2018-01-23 08:00:00 1.6 4 Sur 6 Sur 0 -- -- 100
2018-01-23 07:00:00 1.8 3 Sur 6 Oeste 0 -- -- 100
2018-01-23 06:00:00 1.6 3 Sudoeste 5 Oeste 0 -- -- 100
2018-01-23 05:00:00 1.2 5 Sur 8 Sur 0 -- -- 100
2018-01-23 04:00:00 1.7 2 Oeste 4 Oeste 0 -- -- 100
2018-01-23 03:00:00 2.2 2 Sudoeste 6 Sudoeste 0 -- -- 99
2018-01-23 02:00:00 2.6 3 Sudoeste 8 Sur 0 -- -- 97
2018-01-23 01:00:00 3.4 2 Sudoeste 11 Sur 0 -- -- 95
2018-01-23 00:00:00 5 4 Sur 8 Sur 0 -- -- 90
2018-01-22 23:00:00 6.7 2 Norte 8 Este 0 -- -- 88
2018-01-22 22:00:00 7.5 0 Calma 8 Norte 0 -- -- 87
2018-01-22 21:00:00 7.6 0 Calma 3 Nordeste 0 -- -- 88
2018-01-22 20:00:00 7.7 0 Calma 6 Nordeste 0 -- -- 87
2018-01-22 19:00:00 7.9 3 Norte 10 Norte 0 -- -- 84
2018-01-22 18:00:00 8.4 3 Nordeste 9 Norte 0 -- -- 86
2018-01-22 17:00:00 8.7 2 Norte 12 Norte 0 -- -- 85
2018-01-22 16:00:00 9.1 5 Norte 16 Noroeste 0 -- -- 82
2018-01-22 15:00:00 9.6 6 Noroeste 17 Oeste 0 -- -- 82
2018-01-22 14:00:00 10.1 4 Sudoeste 9 Sudoeste 0 -- -- 80
2018-01-22 13:00:00 8.9 5 Sur 9 Sur 0 -- -- 85
2018-01-22 12:00:00 7.4 3 Sur 7 Sudoeste 0 -- -- 93
2018-01-22 11:00:00 6.4 4 Sur 17 Sur 0 -- -- 97
2018-01-22 10:00:00 5.4 4 Sur 10 Sudeste 0 -- -- 99
2018-01-22 09:00:00 4.8 0 Calma 8 Sur 0 -- -- 96
2018-01-22 08:00:00 5.3 4 Sur 13 Sudeste 0 -- -- 94
2018-01-22 07:00:00 5.9 3 Sudeste 14 Sur 0 -- -- 95
2018-01-22 06:00:00 6.1 5 Sudeste 19 Sur 0 -- -- 95
2018-01-22 05:00:00 5.9 9 Sudeste 18 Sudeste 0 -- -- 95
2018-01-22 04:00:00 5.8 4 Sur 13 Sur 0 -- -- 95
2018-01-22 03:00:00 6.6 7 Sudoeste 12 Sur 0 -- -- 96
2018-01-22 02:00:00 6.9 4 Sur 10 Sur 0 -- -- 97
2018-01-22 01:00:00 7.1 3 Sur 8 Sudoeste 0 -- -- 98
2018-01-22 00:00:00 7.2 2 Sur 11 Oeste 0 -- -- 97